Time;durP1;ratioP1;P1;durP2;ratioP2;P2;SDS_P1;SDS_P2;PMS_P1;PMS_P2;Temp;Humidity;BMP_temperature;BMP_pressure;BME280_temperature;BME280_humidity;BME280_pressure;Samples;Min_cycle;Max_cycle;Signal;HPM_P1;HPM_P2
2024/01/08 00:02:44;;;;;;;21.60;19.50;;;9.50;89.40;;;;;;12585595;28;20135;-74
2024/01/08 00:08:45;;;;;;;34.00;31.58;;;9.60;89.40;;;;;;12602940;28;20043;-73
2024/01/08 00:14:47;;;;;;;33.17;30.55;;;9.50;89.40;;;;;;12585301;28;20047;-73
2024/01/08 00:20:48;;;;;;;33.20;30.70;;;9.50;89.40;;;;;;12602672;28;20037;-73
2024/01/08 00:26:50;;;;;;;37.08;34.28;;;9.50;89.40;;;;;;12588310;28;20429;-73
2024/01/08 00:32:52;;;;;;;27.92;25.52;;;9.50;89.50;;;;;;12611850;28;20021;-73
2024/01/08 00:38:53;;;;;;;28.83;26.10;;;9.50;89.40;;;;;;12611466;28;20032;-73
2024/01/08 00:44:56;;;;;;;30.67;28.50;;;9.50;89.40;;;;;;12611228;28;20024;-73
2024/01/08 00:50:58;;;;;;;26.92;24.67;;;9.40;89.50;;;;;;12576962;28;20138;-73
2024/01/08 00:56:59;;;;;;;24.88;22.40;;;9.40;89.50;;;;;;12610640;28;20476;-73
2024/01/08 01:03:01;;;;;;;18.52;16.55;;;9.50;89.50;;;;;;12592687;28;20033;-73
2024/01/08 01:09:03;;;;;;;29.98;27.77;;;9.40;89.50;;;;;;12610110;28;20043;-73
2024/01/08 01:15:05;;;;;;;30.48;28.27;;;9.50;89.60;;;;;;12609923;28;20028;-74
2024/01/08 01:21:06;;;;;;;20.38;18.52;;;9.40;89.50;;;;;;12591735;28;20044;-73
2024/01/08 01:27:08;;;;;;;19.73;17.90;;;9.30;89.50;;;;;;12609427;28;20036;-73
2024/01/08 01:33:10;;;;;;;23.70;21.55;;;9.30;89.70;;;;;;12609919;28;20032;-73
2024/01/08 01:39:11;;;;;;;23.67;21.90;;;9.30;89.70;;;;;;12607709;28;20039;-73
2024/01/08 01:45:13;;;;;;;31.73;29.35;;;9.40;89.70;;;;;;12590582;28;20043;-73
2024/01/08 01:51:15;;;;;;;30.80;28.35;;;9.40;89.60;;;;;;12609245;28;20431;-73
2024/01/08 01:57:17;;;;;;;31.65;29.35;;;9.40;89.60;;;;;;12607891;28;20039;-73
2024/01/08 02:03:20;;;;;;;30.00;27.80;;;9.40;89.60;;;;;;12589936;28;20033;-73
2024/01/08 02:09:22;;;;;;;29.67;27.45;;;9.40;89.60;;;;;;12589980;28;20048;-73
2024/01/08 02:15:23;;;;;;;27.35;25.33;;;9.40;89.50;;;;;;12589812;28;20027;-73
2024/01/08 02:21:25;;;;;;;28.13;26.25;;;9.40;89.50;;;;;;12588944;28;20024;-73
2024/01/08 02:27:26;;;;;;;32.53;30.55;;;9.40;89.50;;;;;;12606393;28;20036;-73
2024/01/08 02:33:28;;;;;;;26.05;24.05;;;9.40;89.50;;;;;;12588423;28;20024;-73
2024/01/08 02:39:29;;;;;;;24.00;22.27;;;9.50;89.40;;;;;;12605921;28;20446;-73
2024/01/08 02:45:31;;;;;;;28.40;26.55;;;9.60;89.30;;;;;;12605593;28;20424;-73
2024/01/08 02:51:33;;;;;;;27.63;25.80;;;9.60;89.30;;;;;;12605702;28;20025;-73
2024/01/08 02:57:34;;;;;;;21.85;20.05;;;9.70;89.30;;;;;;12604992;28;20037;-75
2024/01/08 03:03:36;;;;;;;39.95;36.83;;;9.70;89.20;;;;;;12604792;28;20029;-75
2024/01/08 03:09:38;;;;;;;26.17;24.40;;;9.90;89.10;;;;;;12604861;28;20035;-75
2024/01/08 03:15:39;;;;;;;22.92;21.33;;;9.90;89.20;;;;;;12586683;28;20043;-75
2024/01/08 03:21:41;;;;;;;60.25;57.22;;;10.00;89.10;;;;;;12605073;28;20028;-73
2024/01/08 03:27:42;;;;;;;44.28;41.97;;;10.10;89.00;;;;;;12604060;28;20043;-73
2024/01/08 03:33:44;;;;;;;111.50;107.03;;;10.20;88.90;;;;;;12603984;28;20028;-73
2024/01/08 03:39:45;;;;;;;27.58;25.98;;;10.20;88.90;;;;;;12603819;28;20036;-73
2024/01/08 03:45:47;;;;;;;79.90;76.45;;;10.20;88.80;;;;;;12603606;28;20050;-73
2024/01/08 03:51:48;;;;;;;66.70;63.45;;;10.30;88.50;;;;;;12603617;28;20335;-73
2024/01/08 03:57:50;;;;;;;185.05;178.23;;;10.40;88.40;;;;;;12603275;28;20045;-75
2024/01/08 04:03:51;;;;;;;172.02;165.48;;;10.50;88.20;;;;;;12609718;28;20032;-75
2024/01/08 04:09:53;;;;;;;200.75;193.25;;;10.50;88.00;;;;;;12595436;28;20036;-75
2024/01/08 04:15:55;;;;;;;188.98;181.85;;;10.60;87.90;;;;;;12612813;28;20048;-75
2024/01/08 04:21:56;;;;;;;208.80;200.98;;;10.60;87.70;;;;;;12612529;28;20032;-75
2024/01/08 04:27:58;;;;;;;173.30;166.80;;;10.60;87.60;;;;;;12594331;28;20032;-75
2024/01/08 04:33:59;;;;;;;233.75;225.13;;;10.70;87.50;;;;;;12611873;28;20037;-75
2024/01/08 04:40:01;;;;;;;92.60;88.65;;;10.70;87.40;;;;;;12611705;28;20458;-75
2024/01/08 04:46:03;;;;;;;172.65;166.43;;;10.70;87.20;;;;;;12611304;28;20024;-75
2024/01/08 04:52:05;;;;;;;166.63;160.30;;;10.80;87.10;;;;;;12593238;28;20032;-75
2024/01/08 04:58:12;;;;;;;105.22;100.75;;;10.80;87.00;;;;;;12610680;28;20067;-75
2024/01/08 05:04:14;;;;;;;218.10;209.63;;;10.80;86.90;;;;;;12592780;28;20043;-75
2024/01/08 05:10:16;;;;;;;220.80;212.23;;;10.90;86.90;;;;;;12610278;28;20032;-75
2024/01/08 05:16:21;;;;;;;100.47;96.47;;;11.00;86.90;;;;;;12592161;28;20029;-75
2024/01/08 05:22:26;;;;;;;153.95;148.00;;;11.10;86.90;;;;;;12576620;28;20314;-75
2024/01/08 05:28:30;;;;;;;186.23;179.10;;;11.00;86.70;;;;;;12609321;28;20527;-75
2024/01/08 05:34:32;;;;;;;207.32;199.35;;;11.00;86.60;;;;;;12609230;28;20029;-75
2024/01/08 05:40:33;;;;;;;160.40;154.38;;;11.00;86.40;;;;;;12609606;28;20032;-75
2024/01/08 05:46:39;;;;;;;121.30;116.75;;;11.00;86.20;;;;;;12608417;28;20039;-74
2024/01/08 05:52:43;;;;;;;135.07;130.07;;;11.10;86.30;;;;;;12608304;28;20040;-73
2024/01/08 05:58:44;;;;;;;133.98;128.95;;;11.20;86.20;;;;;;12608024;28;20039;-73
2024/01/08 06:04:46;;;;;;;141.18;135.73;;;11.20;86.10;;;;;;12607582;28;20058;-73
2024/01/08 06:10:48;;;;;;;153.15;147.57;;;11.20;85.90;;;;;;12607432;28;20437;-75
2024/01/08 06:16:50;;;;;;;170.73;164.40;;;11.20;85.80;;;;;;12607101;28;20040;-75
2024/01/08 06:22:51;;;;;;;117.28;112.88;;;11.20;85.60;;;;;;12606730;28;20028;-73
2024/01/08 06:28:53;;;;;;;118.93;114.63;;;11.20;85.70;;;;;;12606168;28;20322;-74
2024/01/08 06:34:54;;;;;;;86.38;82.95;;;11.20;85.50;;;;;;12606057;28;20029;-73
2024/01/08 06:40:56;;;;;;;160.30;154.38;;;11.20;85.30;;;;;;12605834;28;20040;-73
2024/01/08 06:46:58;;;;;;;81.15;77.95;;;11.20;85.10;;;;;;12587718;28;20051;-73
2024/01/08 06:52:59;;;;;;;133.05;127.97;;;11.20;85.00;;;;;;12605343;28;20028;-73
2024/01/08 06:59:01;;;;;;;108.88;104.55;;;11.10;85.10;;;;;;12620234;22;20040;-73
2024/01/08 07:05:03;;;;;;;197.20;189.38;;;10.90;85.10;;;;;;12654940;28;20032;-74
2024/01/08 07:11:05;;;;;;;196.88;189.35;;;10.90;85.20;;;;;;12656105;28;20028;-73
2024/01/08 07:17:06;;;;;;;192.88;185.38;;;11.00;85.00;;;;;;12654621;28;20032;-73
2024/01/08 07:23:13;;;;;;;146.32;140.82;;;11.10;84.80;;;;;;12636229;28;20051;-75
2024/01/08 07:29:14;;;;;;;188.35;181.30;;;11.20;84.60;;;;;;12652935;28;20032;-75
2024/01/08 07:35:16;;;;;;;134.82;129.55;;;11.20;84.50;;;;;;12653938;28;20039;-75
2024/01/08 07:41:18;;;;;;;144.35;138.90;;;11.20;84.60;;;;;;12653009;28;20040;-75
2024/01/08 07:47:19;;;;;;;132.30;127.13;;;11.30;84.40;;;;;;12653563;28;20337;-75
2024/01/08 07:53:44;;;;;;;132.63;127.30;;;11.30;84.30;;;;;;12652791;28;20028;-75
2024/01/08 07:59:46;;;;;;;148.77;142.70;;;11.30;84.10;;;;;;12653297;28;20032;-75
2024/01/08 08:05:47;;;;;;;118.55;113.60;;;11.30;84.20;;;;;;12652741;28;20032;-75
2024/01/08 08:11:55;;;;;;;118.95;113.97;;;11.40;84.10;;;;;;12652039;28;20028;-75
2024/01/08 08:17:57;;;;;;;111.30;105.97;;;11.50;84.10;;;;;;12651889;28;20028;-75
2024/01/08 08:24:03;;;;;;;168.27;161.93;;;11.30;84.50;;;;;;12652503;28;20036;-75
2024/01/08 08:30:08;;;;;;;64.13;61.25;;;11.40;84.70;;;;;;12652770;28;20352;-75
2024/01/08 08:36:10;;;;;;;113.35;109.05;;;11.50;84.80;;;;;;12651849;28;20433;-75
2024/01/08 08:42:12;;;;;;;119.00;114.25;;;11.50;85.00;;;;;;12652362;28;20028;-75
2024/01/08 08:48:13;;;;;;;105.13;101.00;;;11.70;85.00;;;;;;12654404;28;20051;-75
2024/01/08 08:54:15;;;;;;;83.57;80.07;;;11.60;85.20;;;;;;12661317;28;20032;-75
2024/01/08 09:00:46;;;;;;;40.90;38.78;;;11.70;85.40;;;;;;12659927;28;20043;-75
2024/01/08 09:06:47;;;;;;;45.17;42.95;;;11.70;85.50;;;;;;12660736;28;20039;-75
2024/01/08 09:12:49;;;;;;;63.17;60.50;;;11.80;85.30;;;;;;12659366;28;20024;-75
2024/01/08 09:18:51;;;;;;;94.70;91.03;;;11.80;85.10;;;;;;12660174;28;20028;-75
2024/01/08 09:24:53;;;;;;;126.70;121.88;;;11.50;85.00;;;;;;12659826;28;20032;-75
2024/01/08 09:30:55;;;;;;;108.82;104.75;;;11.30;85.30;;;;;;12659579;28;20035;-75
2024/01/08 09:36:56;;;;;;;104.30;99.32;;;11.30;85.40;;;;;;12658078;28;20047;-75
2024/01/08 09:43:00;;;;;;;71.25;68.43;;;11.40;85.80;;;;;;12657875;28;20344;-75
2024/01/08 09:49:03;;;;;;;165.05;158.85;;;11.10;83.60;;;;;;12658683;28;20031;-74
2024/01/08 09:55:07;;;;;;;204.10;196.27;;;10.90;84.10;;;;;;12658361;28;20032;-75
2024/01/08 10:01:09;;;;;;;181.48;174.70;;;11.00;84.10;;;;;;12656823;28;20031;-75
2024/01/08 10:07:12;;;;;;;114.70;110.40;;;10.90;84.40;;;;;;12656601;28;20028;-75
2024/01/08 10:13:14;;;;;;;106.95;102.70;;;11.10;84.00;;;;;;12657360;28;20070;-74
2024/01/08 10:19:18;;;;;;;143.48;138.23;;;11.00;84.30;;;;;;12657268;28;20028;-74
2024/01/08 10:25:22;;;;;;;125.80;121.18;;;10.80;84.00;;;;;;12656799;28;20472;-74
2024/01/08 10:31:24;;;;;;;100.82;97.05;;;10.80;82.80;;;;;;12656259;28;20043;-75
2024/01/08 10:37:27;;;;;;;88.80;84.95;;;10.90;84.50;;;;;;12656349;28;20028;-75
2024/01/08 10:43:30;;;;;;;164.25;158.23;;;11.20;84.90;;;;;;12654888;28;20028;-74
2024/01/08 10:49:34;;;;;;;103.80;99.35;;;11.40;84.70;;;;;;12655855;28;20437;-74
2024/01/08 10:55:40;;;;;;;92.70;88.97;;;11.50;83.80;;;;;;12654582;28;20046;-74
2024/01/08 11:01:42;;;;;;;47.25;45.03;;;11.60;84.70;;;;;;12655130;28;20036;-75
2024/01/08 11:07:47;;;;;;;36.63;34.90;;;11.90;84.70;;;;;;12637057;28;20053;-75
2024/01/08 11:13:49;;;;;;;48.67;46.50;;;11.90;84.40;;;;;;12654481;28;20020;-74
2024/01/08 11:19:54;;;;;;;24.05;22.70;;;12.20;84.60;;;;;;12654633;28;20322;-75
2024/01/08 11:25:56;;;;;;;9.07;8.25;;;12.20;84.40;;;;;;12636276;28;20036;-74
2024/01/08 11:32:13;;;;;;;6.65;4.40;;;12.40;84.10;;;;;;12636370;28;20039;-75
2024/01/08 11:38:27;;;;;;;17.50;16.27;;;12.60;83.60;;;;;;12653890;28;20050;-75
2024/01/08 11:44:29;;;;;;;12.93;11.88;;;12.60;83.10;;;;;;12635500;28;20040;-74
2024/01/08 11:50:30;;;;;;;8.18;4.28;;;12.60;82.50;;;;;;12653699;28;20031;-74
2024/01/08 11:56:33;;;;;;;5.80;3.75;;;12.60;82.40;;;;;;12653279;28;20041;-75
2024/01/08 12:02:38;;;;;;;12.20;4.47;;;12.70;82.90;;;;;;12634505;28;20028;-74
2024/01/08 12:08:39;;;;;;;6.15;3.92;;;12.90;83.90;;;;;;12659619;28;20040;-75
2024/01/08 12:14:41;;;;;;;5.40;3.58;;;12.90;82.80;;;;;;12652961;28;20020;-75
2024/01/08 12:20:44;;;;;;;7.13;4.18;;;13.00;83.40;;;;;;12652373;28;20031;-72
2024/01/08 12:26:47;;;;;;;9.18;4.22;;;12.70;82.00;;;;;;12662377;28;20024;-71
2024/01/08 12:32:48;;;;;;;8.23;7.53;;;12.60;82.50;;;;;;12644485;28;20380;-71
2024/01/08 12:38:50;;;;;;;5.93;4.13;;;12.40;82.50;;;;;;12662125;28;20032;-71
2024/01/08 12:44:53;;;;;;;6.68;4.60;;;12.60;83.10;;;;;;12662457;28;20032;-71
2024/01/08 12:50:55;;;;;;;20.58;6.82;;;12.80;82.50;;;;;;12661433;28;20028;-71
2024/01/08 12:56:58;;;;;;;10.20;5.72;;;12.70;81.80;;;;;;12651763;28;20090;-71
2024/01/08 13:03:00;;;;;;;8.65;6.78;;;12.70;81.60;;;;;;12610682;28;20032;-71
2024/01/08 13:09:03;;;;;;;12.77;6.00;;;12.70;81.80;;;;;;12592486;28;20074;-74
2024/01/08 13:15:06;;;;;;;9.65;6.82;;;12.80;82.00;;;;;;12592328;28;20028;-74
2024/01/08 13:21:08;;;;;;;6.93;5.72;;;12.80;81.30;;;;;;12609787;28;20032;-74
2024/01/08 13:27:13;;;;;;;6.43;4.97;;;13.00;82.10;;;;;;12609442;28;20037;-74
2024/01/08 13:33:14;;;;;;;13.32;5.80;;;13.20;82.50;;;;;;12591230;28;20323;-74
2024/01/08 13:39:16;;;;;;;10.82;6.80;;;13.30;81.60;;;;;;12609038;28;20032;-74
2024/01/08 13:45:18;;;;;;;9.65;6.85;;;13.20;82.90;;;;;;12591371;28;20052;-74
2024/01/08 13:51:20;;;;;;;11.00;7.75;;;13.30;83.40;;;;;;12608520;28;20032;-72
2024/01/08 13:57:22;;;;;;;12.68;7.68;;;13.50;84.50;;;;;;12573680;28;20373;-72
2024/01/08 14:03:23;;;;;;;9.35;6.05;;;13.70;84.60;;;;;;12606206;28;20028;-72
2024/01/08 14:09:25;;;;;;;9.55;6.28;;;13.50;84.00;;;;;;12607760;28;20055;-72
2024/01/08 14:15:27;;;;;;;17.00;7.65;;;13.20;83.40;;;;;;12589331;28;20035;-72
2024/01/08 14:21:28;;;;;;;9.65;7.50;;;12.70;81.70;;;;;;12589091;28;20028;-72
2024/01/08 14:27:30;;;;;;;57.83;55.17;;;12.50;82.30;;;;;;12605719;28;20036;-72
2024/01/08 14:33:32;;;;;;;33.72;31.63;;;12.30;81.80;;;;;;12589305;28;20440;-72
2024/01/08 14:39:34;;;;;;;77.15;73.88;;;12.10;83.20;;;;;;12588241;28;20036;-72
2024/01/08 14:45:36;;;;;;;17.23;15.95;;;12.40;83.40;;;;;;12570642;28;20032;-72
2024/01/08 14:51:38;;;;;;;44.35;42.13;;;12.60;83.60;;;;;;12605444;28;20039;-74
2024/01/08 14:57:39;;;;;;;64.78;61.90;;;12.30;83.70;;;;;;12589640;22;20353;-74
2024/01/08 15:03:43;;;;;;;24.70;23.35;;;12.20;83.80;;;;;;12586811;28;20471;-74
2024/01/08 15:09:47;;;;;;;28.02;26.55;;;12.20;84.40;;;;;;12606221;28;20245;-74
2024/01/08 15:15:48;;;;;;;36.80;34.78;;;12.40;85.00;;;;;;12586761;28;20043;-75
2024/01/08 15:21:52;;;;;;;58.50;55.75;;;12.30;83.60;;;;;;12570083;28;20040;-74
2024/01/08 15:27:54;;;;;;;32.70;30.95;;;12.00;83.70;;;;;;12593676;28;20036;-74
2024/01/08 15:33:56;;;;;;;49.00;46.53;;;12.10;84.40;;;;;;12536356;28;20350;-74
2024/01/08 15:39:58;;;;;;;41.50;39.50;;;12.10;83.80;;;;;;12554011;28;20032;-74
2024/01/08 15:46:05;;;;;;;34.50;32.45;;;12.10;84.70;;;;;;12553824;28;20033;-74
2024/01/08 15:52:06;;;;;;;87.32;83.93;;;12.20;84.40;;;;;;12553595;28;20025;-75
2024/01/08 15:58:08;;;;;;;59.70;57.00;;;12.40;84.60;;;;;;12539338;28;20043;-74
2024/01/08 16:04:10;;;;;;;19.38;17.95;;;12.50;84.20;;;;;;12546454;28;20047;-74
2024/01/08 16:10:12;;;;;;;21.50;20.10;;;12.70;84.70;;;;;;12546321;28;20041;-74
2024/01/08 16:16:13;;;;;;;39.17;37.00;;;12.80;84.10;;;;;;12545595;28;20024;-74
2024/01/08 16:22:15;;;;;;;26.98;25.20;;;12.80;84.40;;;;;;12545249;28;20033;-74
2024/01/08 16:28:17;;;;;;;15.60;14.43;;;13.00;84.70;;;;;;12562666;28;20438;-74
2024/01/08 16:34:18;;;;;;;7.13;5.53;;;12.90;83.90;;;;;;12562321;28;20036;-74
2024/01/08 16:40:20;;;;;;;37.53;35.50;;;12.70;83.90;;;;;;12562134;28;20036;-74
2024/01/08 16:46:22;;;;;;;30.23;28.60;;;12.70;84.20;;;;;;12544229;28;20045;-74
2024/01/08 16:52:24;;;;;;;32.10;30.45;;;12.70;84.10;;;;;;12561574;28;20346;-74
2024/01/08 16:58:26;;;;;;;82.78;79.38;;;12.60;83.70;;;;;;12561161;28;20036;-74
2024/01/08 17:04:28;;;;;;;46.72;44.70;;;12.20;82.20;;;;;;12560977;28;20029;-74
2024/01/08 17:10:31;;;;;;;57.63;55.08;;;11.90;82.70;;;;;;12590058;28;20329;-74
2024/01/08 17:16:51;;;;;;;57.55;54.85;;;11.80;82.70;;;;;;12592346;28;20033;-75
2024/01/08 17:22:53;;;;;;;62.88;60.08;;;11.80;83.40;;;;;;12592644;28;20052;-74
2024/01/08 17:28:55;;;;;;;87.25;83.80;;;11.70;83.00;;;;;;12591590;28;20056;-74
2024/01/08 17:34:56;;;;;;;160.15;154.02;;;11.60;82.80;;;;;;12591477;28;20409;-75
2024/01/08 17:40:59;;;;;;;89.70;86.18;;;11.70;83.40;;;;;;12609015;28;20044;-74
2024/01/08 17:47:01;;;;;;;89.30;85.68;;;11.90;83.60;;;;;;12608602;28;20037;-74
2024/01/08 17:53:03;;;;;;;83.45;80.13;;;12.00;83.30;;;;;;12604463;28;20034;-74
2024/01/08 17:59:04;;;;;;;90.00;86.20;;;11.90;83.30;;;;;;12524495;28;20048;-74
2024/01/08 18:05:06;;;;;;;68.15;65.22;;;11.90;83.50;;;;;;12558002;28;20052;-74
2024/01/08 18:11:10;;;;;;;85.32;81.57;;;12.00;83.40;;;;;;12540303;28;20040;-75
2024/01/08 18:17:12;;;;;;;59.58;56.65;;;12.00;83.50;;;;;;12545355;28;20037;-74
2024/01/08 18:23:14;;;;;;;65.15;62.33;;;12.00;83.40;;;;;;12602080;28;20036;-74
2024/01/08 18:29:15;;;;;;;79.70;76.13;;;12.10;83.60;;;;;;12555931;28;20468;-74
2024/01/08 18:35:17;;;;;;;66.63;63.63;;;12.10;83.80;;;;;;12572084;28;20032;-75
2024/01/08 18:41:19;;;;;;;91.18;87.45;;;12.20;84.20;;;;;;12606123;28;20036;-74
2024/01/08 18:47:22;;;;;;;69.32;66.30;;;12.20;83.90;;;;;;12605762;28;20353;-74
2024/01/08 18:53:24;;;;;;;90.95;87.30;;;12.10;84.10;;;;;;12619649;28;20459;-73
2024/01/08 18:59:26;;;;;;;133.02;127.88;;;12.10;84.10;;;;;;12637477;28;20229;-73
2024/01/08 19:05:28;;;;;;;95.75;91.97;;;11.90;84.00;;;;;;12636916;28;20035;-73
2024/01/08 19:11:30;;;;;;;76.03;72.85;;;11.80;84.10;;;;;;12637078;28;20460;-73
2024/01/08 19:17:32;;;;;;;136.93;131.70;;;11.80;84.20;;;;;;12620084;28;20032;-73
2024/01/08 19:23:35;;;;;;;157.85;151.85;;;11.80;83.90;;;;;;12636414;28;20035;-73
2024/01/08 19:29:36;;;;;;;67.00;63.95;;;11.70;83.90;;;;;;12654697;28;20055;-73
2024/01/08 19:35:39;;;;;;;154.30;148.63;;;11.70;84.00;;;;;;12653661;28;20028;-73
2024/01/08 19:41:41;;;;;;;111.93;107.60;;;11.70;84.60;;;;;;12653935;28;20241;-73
2024/01/08 19:47:42;;;;;;;75.22;71.82;;;11.70;84.60;;;;;;12653363;28;20036;-73
2024/01/08 19:53:44;;;;;;;133.55;128.45;;;11.70;84.70;;;;;;12653559;28;20421;-73
2024/01/08 19:59:46;;;;;;;104.88;100.60;;;11.70;84.70;;;;;;12588564;28;20040;-73
2024/01/08 20:05:48;;;;;;;150.48;144.60;;;11.60;84.50;;;;;;12585586;28;20036;-73
2024/01/08 20:11:49;;;;;;;17.25;15.95;;;11.60;84.40;;;;;;12586230;28;20357;-73
2024/01/08 20:17:51;;;;;;;155.93;149.95;;;11.40;84.50;;;;;;12603625;28;20033;-73
2024/01/08 20:23:53;;;;;;;109.85;105.60;;;11.40;84.50;;;;;;12552782;28;20072;-73
2024/01/08 20:29:54;;;;;;;16.70;15.43;;;11.30;84.40;;;;;;12583782;28;20028;-73
2024/01/08 20:35:56;;;;;;;8.80;7.68;;;11.20;84.70;;;;;;12602599;28;20035;-73
2024/01/08 20:41:59;;;;;;;80.10;76.78;;;11.10;84.80;;;;;;12602623;28;20032;-73
2024/01/08 20:48:01;;;;;;;29.88;28.08;;;11.10;84.60;;;;;;12611582;28;20039;-73
2024/01/08 20:54:03;;;;;;;10.27;7.65;;;11.10;84.80;;;;;;12611836;28;20032;-73
2024/01/08 21:00:06;;;;;;;8.93;6.90;;;11.00;84.70;;;;;;12575292;28;20037;-73
2024/01/08 21:06:07;;;;;;;16.15;14.85;;;11.10;84.20;;;;;;12544096;28;20051;-73
2024/01/08 21:12:09;;;;;;;9.88;7.82;;;11.00;84.40;;;;;;12527771;28;20037;-73
2024/01/08 21:18:11;;;;;;;10.50;8.10;;;10.90;84.30;;;;;;12561106;28;20035;-73
2024/01/08 21:24:13;;;;;;;22.45;21.08;;;10.90;84.60;;;;;;12560974;28;20035;-73
2024/01/08 21:30:15;;;;;;;7.68;6.88;;;10.80;84.80;;;;;;12559611;28;20036;-74
2024/01/08 21:36:17;;;;;;;16.67;15.32;;;10.90;84.70;;;;;;12575528;28;20033;-74
2024/01/08 21:42:18;;;;;;;69.35;66.43;;;11.00;84.80;;;;;;12559907;28;20039;-74
2024/01/08 21:48:20;;;;;;;17.35;16.13;;;11.10;84.90;;;;;;12559407;28;20051;-74
2024/01/08 21:54:22;;;;;;;11.45;10.05;;;11.10;85.40;;;;;;12541391;28;20052;-74
2024/01/08 22:00:24;;;;;;;29.38;27.88;;;11.20;85.50;;;;;;12578281;28;20047;-74
2024/01/08 22:06:26;;;;;;;102.50;98.63;;;11.20;85.40;;;;;;12623989;28;20039;-75
2024/01/08 22:12:27;;;;;;;90.72;87.18;;;11.20;85.00;;;;;;12590521;28;20040;-74
2024/01/08 22:18:29;;;;;;;85.45;81.85;;;11.20;85.20;;;;;;12607860;28;20040;-74
2024/01/08 22:24:31;;;;;;;17.88;16.55;;;11.20;85.10;;;;;;12607538;28;20051;-74
2024/01/08 22:30:33;;;;;;;96.13;92.00;;;11.20;85.20;;;;;;12589283;28;20039;-75
2024/01/08 22:36:35;;;;;;;19.67;18.48;;;11.00;85.70;;;;;;12588459;28;20029;-75
2024/01/08 22:42:37;;;;;;;17.15;15.88;;;10.80;85.30;;;;;;12556056;28;20047;-75
2024/01/08 22:48:39;;;;;;;23.05;21.13;;;10.70;85.10;;;;;;12588578;28;20020;-75
2024/01/08 22:54:40;;;;;;;18.60;17.25;;;10.70;85.00;;;;;;12606250;28;20032;-74
2024/01/08 23:00:42;;;;;;;19.15;17.80;;;10.70;85.40;;;;;;12612507;22;20055;-73
2024/01/08 23:06:45;;;;;;;23.45;22.13;;;10.50;84.80;;;;;;12604554;28;20040;-73
2024/01/08 23:12:48;;;;;;;14.43;12.95;;;10.20;84.60;;;;;;12636278;28;20039;-73
2024/01/08 23:18:52;;;;;;;7.75;6.43;;;10.20;84.70;;;;;;12654646;28;20028;-73
2024/01/08 23:24:54;;;;;;;13.52;12.38;;;10.20;85.10;;;;;;12657615;28;20052;-73
2024/01/08 23:31:16;;;;;;;29.13;27.35;;;10.20;84.90;;;;;;12654012;28;20032;-73
2024/01/08 23:37:18;;;;;;;11.90;10.90;;;10.10;84.30;;;;;;12654165;28;20028;-73
2024/01/08 23:43:20;;;;;;;7.93;6.95;;;10.00;84.00;;;;;;12654995;28;20039;-73
2024/01/08 23:49:23;;;;;;;9.93;8.02;;;10.00;83.80;;;;;;12654689;28;20043;-75
2024/01/08 23:55:25;;;;;;;22.75;21.27;;;10.10;83.90;;;;;;12654202;28;20042;-75
